Portada
METAR-TAF:

METAR-TAF

Aeroports :

Port Moresby, Papua Nova Guinea

latitud: 09-26S, longitud: 147-13E, altitud: 38 m

Observació

L'informe es va fer fa 1 hora i 13 minuts, a les 19:00 UTC
Vent 5 kt del Nord/Nord-Oest
Temperatura 24°C
Humitat 100%
Pressió 1010 hPa
Visibilitat 10 km o més
Escasses núvols a una alçada de 2000 ft
Cel ennuvolat a una alçada de 6000 ft

METAR: AYPY 131900Z 34005KT 9999 FEW020 BKN060 24/24 Q1010

Hora: 06:13 (20:13 UTC)

Pronòstic

L'informe es va fer fa 5 hores i 13 minuts, a les 15:00 UTC
Pronòstic vàlid del 13 a les 18 UTC al 14 a les 18 UTC
Vent 5 kt del Nord/Nord-Oest
Visibilitat 10 km o més
Núvols disperses a una alçada de 800 ft
Cel ennuvolat a una alçada de 3000 ft
A partir de les 14 a les 0000 UTC
Vent 10 kt del Sud
Visibilitat: 1010 m
Núvols disperses a una alçada de 1800 ft
Cel ennuvolat a una alçada de 4000 ft

TAF: AYPY 131500Z 1318/1418 34005KT 9999 SCT008 BKN030 FM140000 17010KT 9999 SCT018 BKN040 T/25 25 28 30 Q/1008 1009 1011 1010

Observacions i pronòstics meteorològics de més de 4000 aeroports (METAR i TAF).

Les estacions disponibles són els punts grocs i vermells al mapa.

Posi el ratolí al punt desitjat per veure el nom de l'estació.

Feu clic per veure les observacions i els pronòstics meteorològics.

Per canviar el mapa: feu clic els botons verds amb una creu de color negre per apropar; al botó verd amb un guió per allunyar la imatge; o en les fletxes verdes per a mapes adjacents.


METAR-TAF: